createdAt,value
2022-10-30T00:00:38.627Z,10.82
2022-10-30T00:03:05.368Z,11.43
2022-10-30T00:05:32.030Z,12.73
2022-10-30T00:07:59.592Z,12.48
2022-10-30T00:10:26.564Z,12.60
2022-10-30T00:12:53.989Z,13.02
2022-10-30T00:15:20.595Z,13.95
2022-10-30T00:17:47.193Z,12.52
2022-10-30T00:20:13.752Z,12.65
2022-10-30T00:22:40.310Z,13.18
2022-10-30T00:25:07.353Z,12.25
2022-10-30T00:27:33.891Z,12.82
2022-10-30T00:30:00.512Z,11.93
2022-10-30T00:32:27.819Z,11.43
2022-10-30T00:34:54.428Z,11.55
2022-10-30T00:37:21.048Z,11.23
2022-10-30T00:39:47.665Z,11.27
2022-10-30T00:42:16.827Z,11.93
2022-10-30T00:44:52.632Z,12.27
2022-10-30T00:47:37.966Z,10.85
2022-10-30T00:50:11.269Z,11.38
2022-10-30T00:52:45.371Z,11.10
2022-10-30T00:55:17.049Z,10.75
2022-10-30T00:57:45.050Z,9.90
2022-10-30T01:00:12.819Z,9.60
2022-10-30T01:02:40.698Z,9.23
2022-10-30T01:05:07.666Z,9.38
2022-10-30T01:07:35.600Z,9.02
2022-10-30T01:10:03.194Z,9.20
2022-10-30T01:12:29.973Z,9.25
2022-10-30T01:14:59.164Z,8.43
2022-10-30T01:17:57.391Z,7.22
2022-10-30T01:20:52.324Z,6.75
2022-10-30T01:23:28.830Z,7.05
2022-10-30T01:28:37.828Z,6.95
2022-10-30T01:31:31.491Z,7.55
2022-10-30T01:34:22.633Z,6.72
2022-10-30T01:36:57.103Z,6.70
2022-10-30T01:39:28.119Z,7.30
2022-10-30T01:41:55.301Z,7.43
2022-10-30T01:44:32.971Z,7.65
2022-10-30T01:47:22.855Z,7.78
2022-10-30T01:50:14.771Z,8.32
2022-10-30T01:52:57.725Z,7.90
2022-10-30T01:55:51.445Z,8.45
2022-10-30T01:58:28.099Z,9.18
2022-10-30T02:00:58.842Z,8.32
2022-10-30T02:03:27.414Z,7.88
2022-10-30T02:05:54.459Z,7.18
2022-10-30T02:08:23.377Z,7.68
2022-10-30T02:10:52.873Z,6.50
2022-10-30T02:13:31.564Z,6.32
2022-10-30T02:15:59.392Z,6.05
2022-10-30T02:18:26.008Z,6.07
2022-10-30T02:20:53.774Z,6.75
2022-10-30T02:23:22.319Z,6.97
2022-10-30T02:25:50.190Z,6.68
2022-10-30T02:28:16.828Z,6.90
2022-10-30T02:30:46.165Z,6.85
2022-10-30T02:33:12.851Z,6.50
2022-10-30T02:35:39.527Z,7.30
2022-10-30T02:38:06.080Z,6.07
2022-10-30T02:40:32.663Z,7.13
2022-10-30T02:42:59.583Z,6.97
2022-10-30T02:45:26.285Z,6.43
2022-10-30T02:47:52.953Z,7.15
2022-10-30T02:50:19.618Z,6.93
2022-10-30T02:52:46.288Z,7.35
2022-10-30T02:55:12.941Z,7.63
2022-10-30T02:57:40.788Z,6.97
2022-10-30T03:00:07.960Z,7.50
2022-10-30T03:02:34.601Z,6.88
2022-10-30T03:05:01.204Z,7.80
2022-10-30T03:07:28.003Z,7.43
2022-10-30T03:09:54.914Z,8.30
2022-10-30T03:12:22.693Z,7.60
2022-10-30T03:14:49.324Z,6.63
2022-10-30T03:17:16.142Z,7.10
2022-10-30T03:19:42.744Z,6.82
2022-10-30T03:22:09.763Z,7.22
2022-10-30T03:24:38.211Z,6.70
2022-10-30T03:27:05.273Z,6.57
2022-10-30T03:29:31.847Z,5.97
2022-10-30T03:31:58.450Z,6.93
2022-10-30T03:34:29.937Z,7.10
2022-10-30T03:36:58.593Z,7.18
2022-10-30T03:39:25.955Z,7.35
2022-10-30T03:41:52.727Z,7.00
2022-10-30T03:44:19.365Z,6.72
2022-10-30T03:46:46.059Z,7.57
2022-10-30T03:49:26.829Z,7.45
2022-10-30T03:51:54.524Z,7.00
2022-10-30T03:54:23.151Z,8.05
2022-10-30T03:56:49.747Z,7.30
2022-10-30T03:59:17.064Z,7.70
2022-10-30T04:04:21.563Z,8.70
2022-10-30T04:06:48.260Z,8.20
2022-10-30T04:09:15.608Z,9.63
2022-10-30T04:11:44.189Z,8.85
2022-10-30T04:14:10.783Z,9.00
2022-10-30T04:16:37.391Z,9.45
2022-10-30T04:19:04.108Z,9.23
2022-10-30T04:21:30.692Z,9.80
2022-10-30T04:23:58.442Z,9.50
2022-10-30T04:26:28.476Z,9.57
2022-10-30T04:28:55.028Z,9.15
2022-10-30T04:31:21.701Z,8.68
2022-10-30T04:33:48.620Z,8.35
2022-10-30T04:36:17.842Z,8.73
2022-10-30T04:38:45.459Z,8.80
2022-10-30T04:41:12.650Z,8.60
2022-10-30T04:43:51.448Z,8.43
2022-10-30T04:46:18.524Z,8.30
2022-10-30T04:48:45.707Z,7.82
2022-10-30T04:51:13.053Z,7.07
2022-10-30T04:53:39.716Z,7.45
2022-10-30T04:56:08.536Z,7.68
2022-10-30T04:58:37.208Z,7.22
2022-10-30T05:01:06.740Z,7.10
2022-10-30T05:03:34.480Z,7.65
2022-10-30T05:06:07.067Z,7.55
2022-10-30T05:08:34.177Z,7.72
2022-10-30T05:11:09.278Z,7.43
2022-10-30T05:13:35.932Z,7.32
2022-10-30T05:16:02.683Z,7.00
2022-10-30T05:18:29.382Z,6.93
2022-10-30T05:20:56.084Z,6.60
2022-10-30T05:23:22.884Z,6.05
2022-10-30T05:25:49.965Z,5.75
2022-10-30T05:28:16.612Z,5.80
2022-10-30T05:30:55.663Z,6.47
2022-10-30T05:33:40.733Z,6.07
2022-10-30T05:36:08.310Z,6.65
2022-10-30T05:38:35.036Z,6.22
2022-10-30T05:41:01.835Z,7.72
2022-10-30T05:43:28.480Z,6.60
2022-10-30T05:45:55.681Z,6.15
2022-10-30T05:48:22.322Z,6.07
2022-10-30T05:50:49.734Z,7.03
2022-10-30T05:53:26.663Z,6.75
2022-10-30T05:55:59.177Z,6.50
2022-10-30T05:58:30.012Z,6.63
2022-10-30T06:00:58.830Z,6.97
2022-10-30T06:03:44.597Z,6.88
2022-10-30T06:06:12.303Z,6.95
2022-10-30T06:08:39.065Z,7.18
2022-10-30T06:11:21.281Z,7.70
2022-10-30T06:13:52.861Z,7.03
2022-10-30T06:16:24.438Z,6.68
2022-10-30T06:19:17.545Z,6.95
2022-10-30T06:21:46.530Z,6.82
2022-10-30T06:24:15.498Z,6.80
2022-10-30T06:26:59.783Z,8.43
2022-10-30T06:29:26.456Z,8.23
2022-10-30T06:31:53.074Z,7.90
2022-10-30T06:34:19.731Z,7.18
2022-10-30T06:36:46.448Z,6.68
2022-10-30T06:39:13.083Z,7.55
2022-10-30T06:41:55.129Z,7.15
2022-10-30T06:44:42.002Z,6.68
2022-10-30T06:47:08.795Z,5.80
2022-10-30T06:49:35.524Z,5.70
2022-10-30T06:52:02.399Z,5.60
2022-10-30T06:54:29.709Z,5.50
2022-10-30T06:57:14.943Z,5.70
2022-10-30T06:59:52.059Z,7.75
2022-10-30T07:02:41.898Z,6.50
2022-10-30T07:05:11.704Z,5.85
2022-10-30T07:07:38.303Z,6.85
2022-10-30T07:10:06.248Z,6.72
2022-10-30T07:12:58.926Z,5.53
2022-10-30T07:18:23.544Z,4.50
2022-10-30T07:20:57.177Z,4.40
2022-10-30T07:23:24.664Z,4.80
2022-10-30T07:25:57.240Z,4.57
2022-10-30T07:28:35.783Z,4.32
2022-10-30T07:31:28.956Z,4.55
2022-10-30T07:34:30.567Z,4.65
2022-10-30T07:37:16.085Z,4.43
2022-10-30T07:39:57.903Z,4.43
2022-10-30T07:42:43.272Z,4.10
2022-10-30T07:45:29.180Z,4.40
2022-10-30T07:48:16.086Z,4.45
2022-10-30T07:51:01.546Z,4.30
2022-10-30T07:53:28.276Z,4.18
2022-10-30T07:55:56.073Z,4.35
2022-10-30T07:58:45.961Z,4.20
2022-10-30T08:01:45.001Z,4.50
2022-10-30T08:04:23.208Z,4.43
2022-10-30T08:06:55.685Z,4.30
2022-10-30T08:09:22.349Z,4.22
2022-10-30T08:11:48.979Z,4.30
2022-10-30T08:14:16.235Z,5.13
2022-10-30T08:16:42.891Z,6.35
2022-10-30T08:19:09.655Z,6.22
2022-10-30T08:21:36.300Z,6.22
2022-10-30T08:24:10.654Z,6.30
2022-10-30T08:26:40.372Z,5.45
2022-10-30T08:29:09.118Z,5.07
2022-10-30T08:31:35.713Z,4.85
2022-10-30T08:34:02.421Z,5.35
2022-10-30T08:36:35.257Z,4.88
2022-10-30T08:39:03.963Z,4.63
2022-10-30T08:42:00.109Z,4.35
2022-10-30T08:44:31.867Z,4.15
2022-10-30T08:47:21.573Z,4.10
2022-10-30T08:49:48.583Z,4.60
2022-10-30T08:52:18.882Z,4.40
2022-10-30T08:54:49.719Z,4.00
2022-10-30T08:57:16.373Z,4.68
2022-10-30T08:59:43.216Z,3.95
2022-10-30T09:02:22.022Z,4.47
2022-10-30T09:05:09.151Z,4.40
2022-10-30T09:07:58.986Z,4.35
2022-10-30T09:10:45.859Z,4.38
2022-10-30T09:13:13.169Z,4.65
2022-10-30T09:15:39.905Z,4.10
2022-10-30T09:18:06.574Z,4.13
2022-10-30T09:20:33.232Z,3.70
2022-10-30T09:23:00.155Z,4.25
2022-10-30T09:25:27.190Z,4.50
2022-10-30T09:28:12.449Z,5.25
2022-10-30T09:31:05.200Z,4.70
2022-10-30T09:33:35.327Z,4.30
2022-10-30T09:36:33.895Z,3.95
2022-10-30T09:39:00.725Z,4.35
2022-10-30T09:41:58.625Z,4.00
2022-10-30T09:45:15.270Z,3.63
2022-10-30T09:47:50.535Z,4.05
2022-10-30T09:50:26.115Z,7.60
2022-10-30T09:53:25.955Z,4.40
2022-10-30T09:56:08.282Z,4.45
2022-10-30T09:59:17.935Z,3.83
2022-10-30T10:02:09.565Z,4.03
2022-10-30T10:04:48.092Z,3.75
2022-10-30T10:07:22.363Z,4.22
2022-10-30T10:10:03.203Z,3.60
2022-10-30T10:12:47.636Z,3.95
2022-10-30T10:15:49.577Z,4.05
2022-10-30T10:18:25.518Z,4.18
2022-10-30T10:20:56.172Z,4.15
2022-10-30T10:24:03.454Z,4.32
2022-10-30T10:26:42.627Z,4.15
2022-10-30T10:29:38.213Z,3.85
2022-10-30T10:32:31.979Z,4.40
2022-10-30T10:35:04.689Z,3.90
2022-10-30T10:38:00.792Z,4.38
2022-10-30T10:40:59.608Z,4.60
2022-10-30T10:43:59.920Z,4.30
2022-10-30T10:46:46.665Z,4.03
2022-10-30T10:49:22.307Z,4.90
2022-10-30T10:51:56.532Z,4.10
2022-10-30T10:54:32.635Z,4.53
2022-10-30T10:56:59.883Z,4.13
2022-10-30T10:59:32.516Z,4.38
2022-10-30T11:02:22.855Z,5.43
2022-10-30T11:04:53.917Z,3.85
2022-10-30T11:07:24.963Z,4.53
2022-10-30T11:09:53.720Z,4.30
2022-10-30T11:12:32.290Z,4.32
2022-10-30T11:15:31.498Z,4.18
2022-10-30T11:18:00.938Z,4.72
2022-10-30T11:20:47.307Z,4.60
2022-10-30T11:23:40.686Z,4.97
2022-10-30T11:26:22.275Z,4.60
2022-10-30T11:29:03.097Z,4.00
2022-10-30T11:31:37.688Z,4.22
2022-10-30T11:34:19.602Z,4.30
2022-10-30T11:36:48.513Z,4.05
2022-10-30T11:39:23.322Z,4.40
2022-10-30T11:41:58.866Z,3.85
2022-10-30T11:44:29.803Z,4.70
2022-10-30T11:46:57.240Z,4.13
2022-10-30T11:49:27.275Z,4.28
2022-10-30T11:51:54.457Z,4.43
2022-10-30T11:54:22.196Z,4.97
2022-10-30T11:56:50.695Z,4.47
2022-10-30T11:59:21.498Z,4.10
2022-10-30T12:01:59.817Z,4.13
2022-10-30T12:04:28.408Z,3.97
2022-10-30T12:07:23.037Z,3.53
2022-10-30T12:09:49.971Z,4.00
2022-10-30T12:12:22.765Z,4.70
2022-10-30T12:14:49.979Z,4.15
2022-10-30T12:17:18.573Z,3.97
2022-10-30T12:19:55.541Z,3.67
2022-10-30T12:22:32.027Z,4.00
2022-10-30T12:25:17.877Z,4.43
2022-10-30T12:27:44.888Z,4.35
2022-10-30T12:30:18.339Z,4.63
2022-10-30T12:33:00.627Z,3.83
2022-10-30T12:35:42.600Z,3.85
2022-10-30T12:38:32.987Z,5.20
2022-10-30T12:41:23.667Z,4.82
2022-10-30T12:44:16.536Z,4.45
2022-10-30T12:46:52.350Z,4.03
2022-10-30T12:49:26.296Z,4.32
2022-10-30T12:52:02.300Z,4.25
2022-10-30T12:54:40.136Z,4.10
2022-10-30T12:57:25.135Z,4.25
2022-10-30T13:00:03.534Z,4.68
2022-10-30T13:02:39.019Z,4.80
2022-10-30T13:05:32.933Z,4.75
2022-10-30T13:08:30.685Z,4.30
2022-10-30T13:11:05.270Z,4.93
2022-10-30T13:13:38.917Z,4.65
2022-10-30T13:16:15.766Z,3.90
2022-10-30T13:18:42.442Z,4.10
2022-10-30T13:21:20.366Z,4.30
2022-10-30T13:23:59.050Z,4.78
2022-10-30T13:26:42.059Z,4.25
2022-10-30T13:29:45.685Z,4.72
2022-10-30T13:32:41.861Z,4.18
2022-10-30T13:35:32.873Z,4.47
2022-10-30T13:38:02.903Z,4.10
2022-10-30T13:40:38.135Z,4.18
2022-10-30T13:43:32.743Z,4.43
2022-10-30T13:46:27.725Z,4.22
2022-10-30T13:49:23.716Z,3.88
2022-10-30T13:52:00.880Z,4.47
2022-10-30T13:54:32.108Z,4.30
2022-10-30T13:57:11.912Z,4.40
2022-10-30T13:59:59.745Z,4.15
2022-10-30T14:02:53.784Z,4.25
2022-10-30T14:05:29.183Z,4.53
2022-10-30T14:08:36.451Z,4.22
2022-10-30T14:11:06.081Z,4.28
2022-10-30T14:13:35.635Z,4.47
2022-10-30T14:16:06.181Z,4.72
2022-10-30T14:18:46.488Z,4.18
2022-10-30T14:21:53.177Z,5.13
2022-10-30T14:24:34.505Z,4.32
2022-10-30T14:27:04.122Z,3.95
2022-10-30T14:29:34.004Z,5.45
2022-10-30T14:32:13.077Z,4.63
2022-10-30T14:35:00.137Z,4.63
2022-10-30T14:37:26.999Z,4.85
2022-10-30T14:39:55.625Z,6.53
2022-10-30T14:42:28.396Z,4.35
2022-10-30T14:45:24.591Z,5.43
2022-10-30T14:47:54.235Z,4.88
2022-10-30T14:50:26.935Z,4.82
2022-10-30T14:53:12.753Z,5.07
2022-10-30T14:56:23.650Z,4.78
2022-10-30T14:59:12.453Z,4.68
2022-10-30T15:02:00.614Z,5.05
2022-10-30T15:05:08.579Z,5.38
2022-10-30T15:08:00.628Z,4.35
2022-10-30T15:10:32.656Z,4.78
2022-10-30T15:13:20.007Z,4.50
2022-10-30T15:16:00.852Z,4.22
2022-10-30T15:18:30.815Z,4.63
2022-10-30T15:21:04.012Z,4.40
2022-10-30T15:23:34.032Z,5.78
2022-10-30T15:26:09.580Z,5.07
2022-10-30T15:28:38.354Z,4.97
2022-10-30T15:31:17.248Z,4.97
2022-10-30T15:33:44.609Z,4.82
2022-10-30T15:36:20.865Z,5.30
2022-10-30T15:39:07.287Z,5.55
2022-10-30T15:41:43.748Z,5.78
2022-10-30T15:44:14.423Z,6.25
2022-10-30T15:46:47.570Z,7.13
2022-10-30T15:49:34.232Z,6.47
2022-10-30T15:52:32.144Z,7.15
2022-10-30T15:55:08.159Z,64.47
2022-10-30T16:00:33.046Z,6.90
2022-10-30T16:03:05.402Z,29.13
2022-10-30T16:05:33.027Z,10.55
2022-10-30T16:08:02.196Z,14.10
2022-10-30T16:10:34.681Z,8.10
2022-10-30T16:13:03.507Z,7.25
2022-10-30T16:15:38.342Z,6.50
2022-10-30T16:18:07.374Z,7.32
2022-10-30T16:20:36.020Z,13.30
2022-10-30T16:23:04.451Z,11.25
2022-10-30T16:25:32.610Z,13.50
2022-10-30T16:27:59.561Z,8.40
2022-10-30T16:30:29.439Z,7.60
2022-10-30T16:32:56.448Z,14.23
2022-10-30T16:35:24.447Z,11.57
2022-10-30T16:37:51.613Z,25.30
2022-10-30T16:40:27.193Z,26.90
2022-10-30T16:42:59.638Z,28.85
2022-10-30T16:45:32.533Z,21.05
2022-10-30T16:48:09.790Z,12.75
2022-10-30T16:50:37.980Z,12.57
2022-10-30T16:53:24.700Z,16.88
2022-10-30T16:55:52.681Z,16.50
2022-10-30T16:58:20.706Z,16.23
2022-10-30T17:01:03.476Z,17.95
2022-10-30T17:03:38.127Z,27.08
2022-10-30T17:06:07.916Z,42.65
2022-10-30T17:08:54.922Z,60.70
2022-10-30T17:11:35.944Z,26.42
2022-10-30T17:14:06.873Z,20.75
2022-10-30T17:16:37.363Z,21.52
2022-10-30T17:19:32.227Z,36.65
2022-10-30T17:22:02.208Z,17.38
2022-10-30T17:24:32.374Z,18.85
2022-10-30T17:27:05.435Z,31.65
2022-10-30T17:29:38.250Z,20.55
2022-10-30T17:32:13.773Z,21.75
2022-10-30T17:34:40.427Z,24.10
2022-10-30T17:37:07.128Z,23.30
2022-10-30T17:39:33.781Z,15.10
2022-10-30T17:42:00.565Z,15.32
2022-10-30T17:44:29.684Z,19.55
2022-10-30T17:46:56.313Z,49.20
2022-10-30T17:49:32.442Z,53.55
2022-10-30T17:51:59.549Z,59.97
2022-10-30T17:54:26.252Z,57.42
2022-10-30T17:56:52.938Z,35.25
2022-10-30T17:59:19.555Z,33.72
2022-10-30T18:01:46.964Z,35.15
2022-10-30T18:04:20.533Z,15.07
2022-10-30T18:06:47.816Z,10.00
2022-10-30T18:09:14.456Z,9.80
2022-10-30T18:11:41.083Z,17.70
2022-10-30T18:14:10.959Z,13.52
2022-10-30T18:16:37.996Z,15.98
2022-10-30T18:19:09.178Z,18.13
2022-10-30T18:21:35.759Z,16.15
2022-10-30T18:24:02.382Z,15.80
2022-10-30T18:26:29.089Z,15.18
2022-10-30T18:28:55.761Z,14.52
2022-10-30T18:31:24.438Z,21.67
2022-10-30T18:33:51.298Z,22.67
2022-10-30T18:36:20.575Z,17.65
2022-10-30T18:38:47.299Z,16.50
2022-10-30T18:41:28.591Z,16.25
2022-10-30T18:43:55.164Z,13.07
2022-10-30T18:46:21.900Z,11.85
2022-10-30T18:48:48.526Z,14.75
2022-10-30T18:51:24.808Z,11.10
2022-10-30T18:53:52.093Z,11.95
2022-10-30T18:56:26.729Z,12.90
2022-10-30T18:58:58.463Z,22.80
2022-10-30T19:01:32.460Z,22.58
2022-10-30T19:04:00.961Z,16.30
2022-10-30T19:06:28.014Z,16.10
2022-10-30T19:08:54.669Z,15.43
2022-10-30T19:11:24.891Z,15.20
2022-10-30T19:13:52.987Z,14.88
2022-10-30T19:16:23.399Z,17.30
2022-10-30T19:18:50.274Z,15.73
2022-10-30T19:21:20.883Z,15.63
2022-10-30T19:23:48.358Z,16.33
2022-10-30T19:26:16.013Z,14.93
2022-10-30T19:28:43.484Z,13.05
2022-10-30T19:31:14.840Z,12.40
2022-10-30T19:33:41.653Z,11.27
2022-10-30T19:36:36.527Z,9.40
2022-10-30T19:39:12.943Z,10.40
2022-10-30T19:41:40.941Z,13.40
2022-10-30T19:44:07.822Z,13.98
2022-10-30T19:46:35.168Z,17.17
2022-10-30T19:49:16.466Z,19.23
2022-10-30T19:51:43.053Z,21.83
2022-10-30T19:54:10.132Z,30.60
2022-10-30T19:56:36.750Z,39.25
2022-10-30T19:59:03.853Z,36.22
2022-10-30T20:01:30.582Z,28.90
2022-10-30T20:03:57.311Z,19.15
2022-10-30T20:06:24.190Z,18.08
2022-10-30T20:08:50.816Z,15.05
2022-10-30T20:11:17.506Z,15.18
2022-10-30T20:13:44.174Z,17.25
2022-10-30T20:16:11.135Z,24.30
2022-10-30T20:18:38.077Z,22.17
2022-10-30T20:21:08.464Z,20.33
2022-10-30T20:23:36.048Z,20.23
2022-10-30T20:26:06.452Z,18.58
2022-10-30T20:28:39.698Z,16.40
2022-10-30T20:31:07.504Z,16.60
2022-10-30T20:33:34.643Z,18.25
2022-10-30T20:36:01.551Z,20.30
2022-10-30T20:38:31.396Z,19.50
2022-10-30T20:40:59.534Z,21.75
2022-10-30T20:43:37.744Z,22.25
2022-10-30T20:46:06.372Z,18.92
2022-10-30T20:48:33.044Z,18.90
2022-10-30T20:51:01.463Z,15.13
2022-10-30T20:53:29.083Z,15.13
2022-10-30T20:55:56.320Z,25.35
2022-10-30T20:58:23.084Z,23.27
2022-10-30T21:00:53.308Z,22.20
2022-10-30T21:03:19.909Z,22.42
2022-10-30T21:05:46.663Z,16.45
2022-10-30T21:08:14.442Z,18.83
2022-10-30T21:10:41.968Z,22.55
2022-10-30T21:13:10.276Z,21.38
2022-10-30T21:15:42.383Z,21.50
2022-10-30T21:18:11.384Z,18.73
2022-10-30T21:20:38.659Z,21.48
2022-10-30T21:23:06.012Z,22.50
2022-10-30T21:25:32.933Z,24.02
2022-10-30T21:28:00.623Z,20.13
2022-10-30T21:30:27.777Z,20.27
2022-10-30T21:32:54.417Z,18.15
2022-10-30T21:35:21.382Z,19.17
2022-10-30T21:37:48.113Z,20.83
2022-10-30T21:40:14.858Z,24.13
2022-10-30T21:42:41.488Z,25.58
2022-10-30T21:45:08.975Z,21.90
2022-10-30T21:47:35.572Z,22.38
2022-10-30T21:50:05.986Z,18.92
2022-10-30T21:52:34.614Z,13.38
2022-10-30T21:55:01.243Z,13.57
2022-10-30T21:57:28.961Z,13.07
2022-10-30T21:59:56.808Z,15.07
2022-10-30T22:02:25.587Z,19.73
2022-10-30T22:04:52.193Z,19.10
2022-10-30T22:07:19.216Z,18.65
2022-10-30T22:09:46.453Z,15.25
2022-10-30T22:12:13.133Z,15.35
2022-10-30T22:14:39.765Z,17.08
2022-10-30T22:17:06.383Z,13.40
2022-10-30T22:19:32.943Z,12.07
2022-10-30T22:21:59.540Z,10.13
2022-10-30T22:24:26.151Z,8.55
2022-10-30T22:26:52.743Z,7.82
2022-10-30T22:29:19.390Z,7.47
2022-10-30T22:31:46.026Z,8.57
2022-10-30T22:34:12.632Z,8.75
2022-10-30T22:36:39.321Z,10.43
2022-10-30T22:39:12.495Z,9.90
2022-10-30T22:41:39.877Z,11.20
2022-10-30T22:44:10.485Z,11.75
2022-10-30T22:46:37.745Z,22.08
2022-10-30T22:49:04.834Z,27.15
2022-10-30T22:51:33.229Z,12.00
2022-10-30T22:54:02.991Z,7.10
2022-10-30T22:56:32.437Z,5.57
2022-10-30T22:59:02.173Z,6.07
2022-10-30T23:01:31.761Z,4.80
2022-10-30T23:04:01.372Z,4.82
2022-10-30T23:06:30.029Z,4.40
2022-10-30T23:08:58.446Z,4.93
2022-10-30T23:11:26.686Z,4.82
2022-10-30T23:13:53.364Z,5.28
2022-10-30T23:16:22.170Z,4.90
2022-10-30T23:18:49.889Z,4.88
2022-10-30T23:21:18.986Z,4.72
2022-10-30T23:23:46.060Z,5.15
2022-10-30T23:26:21.551Z,4.78
2022-10-30T23:28:50.005Z,4.95
2022-10-30T23:31:22.010Z,4.68
2022-10-30T23:33:50.211Z,4.13
2022-10-30T23:36:16.938Z,4.68
2022-10-30T23:38:43.920Z,4.60
2022-10-30T23:41:10.598Z,4.75
2022-10-30T23:43:37.223Z,4.55
2022-10-30T23:46:03.863Z,4.50
2022-10-30T23:48:30.504Z,4.57
2022-10-30T23:50:57.163Z,5.00
2022-10-30T23:53:23.716Z,4.88
2022-10-30T23:55:54.563Z,4.47
2022-10-30T23:58:21.663Z,4.85
